sensor_id;sensor_type;location;lat;lon;timestamp;pressure;altitude;pressure_sealevel;temperature;humidity
18988;BME280;5494;51.796;10.952;2024-02-16T00:00:14;98785.19;;;11.03;100.00
18988;BME280;5494;51.796;10.952;2024-02-16T00:02:45;98778.97;;;10.90;100.00
18988;BME280;5494;51.796;10.952;2024-02-16T00:05:13;98770.91;;;10.94;100.00
18988;BME280;5494;51.796;10.952;2024-02-16T00:07:41;98772.19;;;10.87;100.00
18988;BME280;5494;51.796;10.952;2024-02-16T00:10:10;98770.59;;;10.85;100.00
18988;BME280;5494;51.796;10.952;2024-02-16T00:12:39;98765.47;;;10.83;100.00
18988;BME280;5494;51.796;10.952;2024-02-16T00:15:09;98755.09;;;10.83;100.00
18988;BME280;5494;51.796;10.952;2024-02-16T00:17:37;98753.31;;;10.84;100.00
18988;BME280;5494;51.796;10.952;2024-02-16T00:20:08;98748.34;;;11.11;100.00
18988;BME280;5494;51.796;10.952;2024-02-16T00:22:39;98742.63;;;11.20;100.00
18988;BME280;5494;51.796;10.952;2024-02-16T00:25:08;98734.50;;;11.10;100.00
18988;BME280;5494;51.796;10.952;2024-02-16T00:27:36;98722.88;;;11.16;100.00
18988;BME280;5494;51.796;10.952;2024-02-16T00:30:07;98723.13;;;11.27;100.00
18988;BME280;5494;51.796;10.952;2024-02-16T00:32:37;98731.59;;;11.30;100.00
18988;BME280;5494;51.796;10.952;2024-02-16T00:35:07;98724.25;;;11.37;100.00
18988;BME280;5494;51.796;10.952;2024-02-16T00:37:35;98732.63;;;11.42;100.00
18988;BME280;5494;51.796;10.952;2024-02-16T00:40:06;98722.66;;;11.34;100.00
18988;BME280;5494;51.796;10.952;2024-02-16T00:42:35;98711.78;;;11.28;100.00
18988;BME280;5494;51.796;10.952;2024-02-16T00:45:05;98711.59;;;11.31;100.00
18988;BME280;5494;51.796;10.952;2024-02-16T00:47:33;98712.84;;;11.39;100.00
18988;BME280;5494;51.796;10.952;2024-02-16T00:50:01;98706.00;;;11.23;100.00
18988;BME280;5494;51.796;10.952;2024-02-16T00:52:33;98704.44;;;11.34;100.00
18988;BME280;5494;51.796;10.952;2024-02-16T00:55:01;98715.22;;;11.28;100.00
18988;BME280;5494;51.796;10.952;2024-02-16T00:57:31;98710.38;;;11.22;100.00
18988;BME280;5494;51.796;10.952;2024-02-16T01:00:01;98708.44;;;11.26;100.00
18988;BME280;5494;51.796;10.952;2024-02-16T01:02:30;98709.13;;;11.14;100.00
18988;BME280;5494;51.796;10.952;2024-02-16T01:05:00;98708.31;;;11.13;100.00
18988;BME280;5494;51.796;10.952;2024-02-16T01:07:30;98699.47;;;11.16;100.00
18988;BME280;5494;51.796;10.952;2024-02-16T01:10:00;98704.69;;;11.16;100.00
18988;BME280;5494;51.796;10.952;2024-02-16T01:12:30;98696.47;;;11.07;100.00
18988;BME280;5494;51.796;10.952;2024-02-16T01:14:58;98705.38;;;11.03;100.00
18988;BME280;5494;51.796;10.952;2024-02-16T01:17:26;98696.75;;;11.03;100.00
18988;BME280;5494;51.796;10.952;2024-02-16T01:19:55;98698.59;;;11.01;100.00
18988;BME280;5494;51.796;10.952;2024-02-16T01:22:23;98698.66;;;10.99;100.00
18988;BME280;5494;51.796;10.952;2024-02-16T01:24:51;98703.13;;;10.97;100.00
18988;BME280;5494;51.796;10.952;2024-02-16T01:27:20;98703.97;;;10.98;100.00
18988;BME280;5494;51.796;10.952;2024-02-16T01:29:49;98699.78;;;10.95;100.00
18988;BME280;5494;51.796;10.952;2024-02-16T01:32:17;98703.97;;;10.98;100.00
18988;BME280;5494;51.796;10.952;2024-02-16T01:34:45;98699.78;;;10.95;100.00
18988;BME280;5494;51.796;10.952;2024-02-16T01:37:16;98709.06;;;10.99;100.00
18988;BME280;5494;51.796;10.952;2024-02-16T01:39:44;98702.94;;;11.00;100.00
18988;BME280;5494;51.796;10.952;2024-02-16T01:42:12;98702.03;;;11.01;100.00
18988;BME280;5494;51.796;10.952;2024-02-16T01:44:42;98713.34;;;11.00;100.00
18988;BME280;5494;51.796;10.952;2024-02-16T01:47:10;98699.34;;;11.03;100.00
18988;BME280;5494;51.796;10.952;2024-02-16T01:49:38;98696.06;;;10.99;100.00
18988;BME280;5494;51.796;10.952;2024-02-16T01:52:07;98701.38;;;10.98;100.00
18988;BME280;5494;51.796;10.952;2024-02-16T01:54:36;98694.06;;;11.04;100.00
18988;BME280;5494;51.796;10.952;2024-02-16T01:57:06;98693.38;;;11.01;100.00
18988;BME280;5494;51.796;10.952;2024-02-16T01:59:35;98681.31;;;11.00;100.00
18988;BME280;5494;51.796;10.952;2024-02-16T02:02:05;98682.13;;;11.00;100.00
18988;BME280;5494;51.796;10.952;2024-02-16T02:04:33;98686.50;;;11.00;100.00
18988;BME280;5494;51.796;10.952;2024-02-16T02:07:11;98683.50;;;11.22;100.00
18988;BME280;5494;51.796;10.952;2024-02-16T02:09:40;98680.13;;;11.50;100.00
18988;BME280;5494;51.796;10.952;2024-02-16T02:12:09;98683.41;;;11.53;100.00
18988;BME280;5494;51.796;10.952;2024-02-16T02:14:37;98672.06;;;11.54;100.00
18988;BME280;5494;51.796;10.952;2024-02-16T02:17:06;98676.91;;;11.60;100.00
18988;BME280;5494;51.796;10.952;2024-02-16T02:19:35;98678.00;;;11.70;100.00
18988;BME280;5494;51.796;10.952;2024-02-16T02:22:03;98677.13;;;11.86;100.00
18988;BME280;5494;51.796;10.952;2024-02-16T02:24:33;98665.22;;;11.81;100.00
18988;BME280;5494;51.796;10.952;2024-02-16T02:27:01;98658.97;;;11.84;100.00
18988;BME280;5494;51.796;10.952;2024-02-16T02:29:29;98663.72;;;11.92;100.00
18988;BME280;5494;51.796;10.952;2024-02-16T02:31:57;98651.16;;;11.84;100.00
18988;BME280;5494;51.796;10.952;2024-02-16T02:34:26;98649.97;;;11.75;100.00
18988;BME280;5494;51.796;10.952;2024-02-16T02:36:54;98646.34;;;11.78;100.00
18988;BME280;5494;51.796;10.952;2024-02-16T02:39:22;98645.50;;;11.77;100.00
18988;BME280;5494;51.796;10.952;2024-02-16T02:41:51;98642.31;;;11.72;100.00
18988;BME280;5494;51.796;10.952;2024-02-16T02:44:19;98644.94;;;11.87;100.00
18988;BME280;5494;51.796;10.952;2024-02-16T02:46:47;98638.22;;;11.82;100.00
18988;BME280;5494;51.796;10.952;2024-02-16T02:49:15;98638.22;;;11.82;100.00
18988;BME280;5494;51.796;10.952;2024-02-16T02:51:44;98626.50;;;11.90;100.00
18988;BME280;5494;51.796;10.952;2024-02-16T02:54:11;98632.06;;;12.12;100.00
18988;BME280;5494;51.796;10.952;2024-02-16T02:56:40;98606.38;;;12.20;100.00
18988;BME280;5494;51.796;10.952;2024-02-16T02:59:09;98613.47;;;12.04;100.00
18988;BME280;5494;51.796;10.952;2024-02-16T03:01:37;98617.03;;;12.03;100.00
18988;BME280;5494;51.796;10.952;2024-02-16T03:04:05;98619.03;;;12.12;100.00
18988;BME280;5494;51.796;10.952;2024-02-16T03:06:34;98626.69;;;12.15;100.00
18988;BME280;5494;51.796;10.952;2024-02-16T03:09:02;98618.84;;;12.15;100.00
18988;BME280;5494;51.796;10.952;2024-02-16T03:11:30;98616.19;;;12.02;100.00
18988;BME280;5494;51.796;10.952;2024-02-16T03:13:58;98613.91;;;12.10;100.00
18988;BME280;5494;51.796;10.952;2024-02-16T03:16:27;98611.41;;;12.23;100.00
18988;BME280;5494;51.796;10.952;2024-02-16T03:18:55;98608.41;;;12.29;100.00
18988;BME280;5494;51.796;10.952;2024-02-16T03:21:24;98604.66;;;12.33;100.00
18988;BME280;5494;51.796;10.952;2024-02-16T03:23:52;98603.19;;;12.29;100.00
18988;BME280;5494;51.796;10.952;2024-02-16T03:26:20;98594.66;;;12.40;100.00
18988;BME280;5494;51.796;10.952;2024-02-16T03:28:48;98597.03;;;12.30;100.00
18988;BME280;5494;51.796;10.952;2024-02-16T03:31:17;98592.38;;;12.35;100.00
18988;BME280;5494;51.796;10.952;2024-02-16T03:33:47;98604.13;;;12.28;100.00
18988;BME280;5494;51.796;10.952;2024-02-16T03:36:16;98598.72;;;12.58;100.00
18988;BME280;5494;51.796;10.952;2024-02-16T03:38:45;98604.44;;;12.50;100.00
18988;BME280;5494;51.796;10.952;2024-02-16T03:41:14;98598.88;;;12.42;100.00
18988;BME280;5494;51.796;10.952;2024-02-16T03:43:43;98596.44;;;12.39;100.00
18988;BME280;5494;51.796;10.952;2024-02-16T03:46:11;98599.97;;;12.38;100.00
18988;BME280;5494;51.796;10.952;2024-02-16T03:48:39;98589.91;;;12.46;100.00
18988;BME280;5494;51.796;10.952;2024-02-16T03:51:09;98593.38;;;12.33;100.00
18988;BME280;5494;51.796;10.952;2024-02-16T03:53:38;98587.47;;;12.31;100.00
18988;BME280;5494;51.796;10.952;2024-02-16T03:56:06;98587.16;;;12.35;100.00
18988;BME280;5494;51.796;10.952;2024-02-16T03:58:36;98577.47;;;12.37;100.00
18988;BME280;5494;51.796;10.952;2024-02-16T04:01:04;98581.28;;;12.32;100.00
18988;BME280;5494;51.796;10.952;2024-02-16T04:03:34;98565.38;;;12.36;100.00
18988;BME280;5494;51.796;10.952;2024-02-16T04:06:02;98573.81;;;12.40;100.00
18988;BME280;5494;51.796;10.952;2024-02-16T04:08:33;98582.69;;;12.37;100.00
18988;BME280;5494;51.796;10.952;2024-02-16T04:11:01;98580.88;;;12.38;100.00
18988;BME280;5494;51.796;10.952;2024-02-16T04:13:30;98581.63;;;12.40;100.00
18988;BME280;5494;51.796;10.952;2024-02-16T04:15:59;98589.66;;;12.37;100.00
18988;BME280;5494;51.796;10.952;2024-02-16T04:18:27;98594.50;;;12.43;100.00
18988;BME280;5494;51.796;10.952;2024-02-16T04:20:55;98597.22;;;12.54;100.00
18988;BME280;5494;51.796;10.952;2024-02-16T04:23:23;98588.59;;;12.66;100.00
18988;BME280;5494;51.796;10.952;2024-02-16T04:25:52;98603.56;;;12.77;100.00
18988;BME280;5494;51.796;10.952;2024-02-16T04:28:20;98610.28;;;12.67;100.00
18988;BME280;5494;51.796;10.952;2024-02-16T04:30:48;98608.56;;;12.80;100.00
18988;BME280;5494;51.796;10.952;2024-02-16T04:33:16;98601.78;;;12.77;100.00
18988;BME280;5494;51.796;10.952;2024-02-16T04:35:45;98617.59;;;12.61;100.00
18988;BME280;5494;51.796;10.952;2024-02-16T04:38:15;98624.97;;;12.55;100.00
18988;BME280;5494;51.796;10.952;2024-02-16T04:40:43;98618.25;;;12.65;100.00
18988;BME280;5494;51.796;10.952;2024-02-16T04:43:12;98622.69;;;12.50;100.00
18988;BME280;5494;51.796;10.952;2024-02-16T04:45:40;98626.25;;;12.35;100.00
18988;BME280;5494;51.796;10.952;2024-02-16T04:48:11;98608.78;;;12.23;100.00
18988;BME280;5494;51.796;10.952;2024-02-16T04:50:40;98606.72;;;12.55;100.00
18988;BME280;5494;51.796;10.952;2024-02-16T04:53:08;98601.69;;;12.79;100.00
18988;BME280;5494;51.796;10.952;2024-02-16T04:55:36;98590.09;;;12.70;100.00
18988;BME280;5494;51.796;10.952;2024-02-16T04:58:04;98580.81;;;12.79;100.00
18988;BME280;5494;51.796;10.952;2024-02-16T05:00:37;98575.38;;;12.82;100.00
18988;BME280;5494;51.796;10.952;2024-02-16T05:03:07;98571.31;;;12.78;100.00
18988;BME280;5494;51.796;10.952;2024-02-16T05:05:35;98570.78;;;12.73;100.00
18988;BME280;5494;51.796;10.952;2024-02-16T05:08:04;98565.34;;;12.63;100.00
18988;BME280;5494;51.796;10.952;2024-02-16T05:10:33;98566.03;;;12.52;100.00
18988;BME280;5494;51.796;10.952;2024-02-16T05:13:01;98568.75;;;12.51;100.00
18988;BME280;5494;51.796;10.952;2024-02-16T05:15:29;98565.50;;;12.47;100.00
18988;BME280;5494;51.796;10.952;2024-02-16T05:17:59;98555.38;;;12.43;100.00
18988;BME280;5494;51.796;10.952;2024-02-16T05:20:28;98557.34;;;12.39;100.00
18988;BME280;5494;51.796;10.952;2024-02-16T05:22:56;98558.19;;;12.40;100.00
18988;BME280;5494;51.796;10.952;2024-02-16T05:25:24;98566.44;;;12.46;100.00
18988;BME280;5494;51.796;10.952;2024-02-16T05:27:52;98549.44;;;12.53;100.00
18988;BME280;5494;51.796;10.952;2024-02-16T05:30:20;98545.28;;;12.51;100.00
18988;BME280;5494;51.796;10.952;2024-02-16T05:32:48;98553.81;;;12.40;100.00
18988;BME280;5494;51.796;10.952;2024-02-16T05:35:18;98538.63;;;12.59;100.00
18988;BME280;5494;51.796;10.952;2024-02-16T05:37:47;98543.63;;;12.50;100.00
18988;BME280;5494;51.796;10.952;2024-02-16T05:40:18;98555.41;;;12.55;100.00
18988;BME280;5494;51.796;10.952;2024-02-16T05:42:51;98550.69;;;12.48;100.00
18988;BME280;5494;51.796;10.952;2024-02-16T05:45:20;98557.16;;;12.42;100.00
18988;BME280;5494;51.796;10.952;2024-02-16T05:47:50;98557.75;;;12.33;100.00
18988;BME280;5494;51.796;10.952;2024-02-16T05:50:21;98555.03;;;12.35;100.00
18988;BME280;5494;51.796;10.952;2024-02-16T05:52:50;98553.56;;;12.31;100.00
18988;BME280;5494;51.796;10.952;2024-02-16T05:55:19;98557.56;;;12.36;100.00
18988;BME280;5494;51.796;10.952;2024-02-16T05:57:47;98564.53;;;12.36;100.00
18988;BME280;5494;51.796;10.952;2024-02-16T06:00:15;98568.16;;;12.33;100.00
18988;BME280;5494;51.796;10.952;2024-02-16T06:02:43;98571.91;;;12.29;100.00
18988;BME280;5494;51.796;10.952;2024-02-16T06:05:12;98565.03;;;12.28;100.00
18988;BME280;5494;51.796;10.952;2024-02-16T06:07:41;98572.31;;;12.23;100.00
18988;BME280;5494;51.796;10.952;2024-02-16T06:10:09;98572.09;;;12.26;100.00
18988;BME280;5494;51.796;10.952;2024-02-16T06:12:39;98567.63;;;12.28;100.00
18988;BME280;5494;51.796;10.952;2024-02-16T06:15:08;98563.53;;;12.24;100.00
18988;BME280;5494;51.796;10.952;2024-02-16T06:17:37;98554.25;;;12.20;100.00
18988;BME280;5494;51.796;10.952;2024-02-16T06:20:07;98563.53;;;12.24;100.00
18988;BME280;5494;51.796;10.952;2024-02-16T06:22:36;98558.53;;;12.21;100.00
18988;BME280;5494;51.796;10.952;2024-02-16T06:25:07;98560.47;;;12.17;100.00
18988;BME280;5494;51.796;10.952;2024-02-16T06:27:35;98559.09;;;12.12;100.00
18988;BME280;5494;51.796;10.952;2024-02-16T06:30:05;98567.66;;;12.14;100.00
18988;BME280;5494;51.796;10.952;2024-02-16T06:32:34;98564.75;;;12.18;100.00
18988;BME280;5494;51.796;10.952;2024-02-16T06:35:02;98579.28;;;12.22;100.00
18988;BME280;5494;51.796;10.952;2024-02-16T06:37:34;98575.88;;;12.35;100.00
18988;BME280;5494;51.796;10.952;2024-02-16T06:40:07;98579.03;;;12.40;100.00
18988;BME280;5494;51.796;10.952;2024-02-16T06:42:36;98586.94;;;12.38;100.00
18988;BME280;5494;51.796;10.952;2024-02-16T06:45:06;98590.38;;;12.39;100.00
18988;BME280;5494;51.796;10.952;2024-02-16T06:47:34;98581.53;;;12.41;100.00
18988;BME280;5494;51.796;10.952;2024-02-16T06:50:03;98592.91;;;12.40;100.00
18988;BME280;5494;51.796;10.952;2024-02-16T06:52:32;98591.63;;;12.33;100.00
18988;BME280;5494;51.796;10.952;2024-02-16T06:55:00;98604.75;;;12.58;100.00
18988;BME280;5494;51.796;10.952;2024-02-16T06:57:30;98612.88;;;12.54;100.00
18988;BME280;5494;51.796;10.952;2024-02-16T06:59:58;98613.09;;;12.51;100.00
18988;BME280;5494;51.796;10.952;2024-02-16T07:02:26;98614.94;;;12.49;100.00
18988;BME280;5494;51.796;10.952;2024-02-16T07:04:55;98618.38;;;12.49;100.00
18988;BME280;5494;51.796;10.952;2024-02-16T07:07:23;98618.38;;;12.49;100.00
18988;BME280;5494;51.796;10.952;2024-02-16T07:09:51;98614.28;;;12.45;100.00
18988;BME280;5494;51.796;10.952;2024-02-16T07:12:22;98623.66;;;12.35;100.00
18988;BME280;5494;51.796;10.952;2024-02-16T07:14:51;98615.97;;;12.46;100.00
18988;BME280;5494;51.796;10.952;2024-02-16T07:17:20;98622.75;;;12.49;100.00
18988;BME280;5494;51.796;10.952;2024-02-16T07:19:48;98624.19;;;12.40;100.00
18988;BME280;5494;51.796;10.952;2024-02-16T07:22:16;98630.50;;;12.50;100.00
18988;BME280;5494;51.796;10.952;2024-02-16T07:24:44;98622.50;;;12.39;100.00
18988;BME280;5494;51.796;10.952;2024-02-16T07:27:12;98627.56;;;12.28;100.00
18988;BME280;5494;51.796;10.952;2024-02-16T07:29:41;98632.78;;;12.28;100.00
18988;BME280;5494;51.796;10.952;2024-02-16T07:32:10;98636.81;;;12.46;100.00
18988;BME280;5494;51.796;10.952;2024-02-16T07:34:39;98638.34;;;12.36;100.00
18988;BME280;5494;51.796;10.952;2024-02-16T07:37:07;98633.03;;;12.38;100.00
18988;BME280;5494;51.796;10.952;2024-02-16T07:39:35;98630.16;;;12.42;100.00
18988;BME280;5494;51.796;10.952;2024-02-16T07:42:04;98633.72;;;12.54;100.00
18988;BME280;5494;51.796;10.952;2024-02-16T07:44:32;98633.69;;;12.41;100.00
18988;BME280;5494;51.796;10.952;2024-02-16T07:47:00;98638.06;;;12.41;100.00
18988;BME280;5494;51.796;10.952;2024-02-16T07:49:29;98632.41;;;12.34;100.00
18988;BME280;5494;51.796;10.952;2024-02-16T07:51:57;98636.47;;;12.38;100.00
18988;BME280;5494;51.796;10.952;2024-02-16T07:54:25;98632.41;;;12.34;100.00
18988;BME280;5494;51.796;10.952;2024-02-16T07:56:53;98640.13;;;12.36;100.00
18988;BME280;5494;51.796;10.952;2024-02-16T07:59:24;98640.44;;;12.58;100.00
18988;BME280;5494;51.796;10.952;2024-02-16T08:01:52;98636.50;;;12.65;100.00
18988;BME280;5494;51.796;10.952;2024-02-16T08:04:20;98630.44;;;12.65;100.00
18988;BME280;5494;51.796;10.952;2024-02-16T08:06:49;98637.19;;;12.54;100.00
18988;BME280;5494;51.796;10.952;2024-02-16T08:09:17;98639.78;;;12.54;100.00
18988;BME280;5494;51.796;10.952;2024-02-16T08:11:46;98637.44;;;12.64;100.00
18988;BME280;5494;51.796;10.952;2024-02-16T08:14:14;98643.09;;;12.71;100.00
18988;BME280;5494;51.796;10.952;2024-02-16T08:16:42;98641.41;;;12.70;100.00
18988;BME280;5494;51.796;10.952;2024-02-16T08:19:10;98641.41;;;12.70;100.00
18988;BME280;5494;51.796;10.952;2024-02-16T08:21:40;98640.06;;;12.77;100.00
18988;BME280;5494;51.796;10.952;2024-02-16T08:24:10;98651.78;;;12.84;100.00
18988;BME280;5494;51.796;10.952;2024-02-16T08:26:38;98641.56;;;12.93;100.00
18988;BME280;5494;51.796;10.952;2024-02-16T08:29:06;98642.66;;;13.03;100.00
18988;BME280;5494;51.796;10.952;2024-02-16T08:31:34;98636.25;;;13.34;100.00
18988;BME280;5494;51.796;10.952;2024-02-16T08:34:02;98627.28;;;13.38;100.00
18988;BME280;5494;51.796;10.952;2024-02-16T08:36:34;98636.13;;;13.49;100.00
18988;BME280;5494;51.796;10.952;2024-02-16T08:39:02;98629.88;;;13.89;100.00
18988;BME280;5494;51.796;10.952;2024-02-16T08:41:31;98637.16;;;13.84;100.00
18988;BME280;5494;51.796;10.952;2024-02-16T08:43:59;98642.16;;;14.00;100.00
18988;BME280;5494;51.796;10.952;2024-02-16T08:46:27;98640.59;;;14.10;100.00
18988;BME280;5494;51.796;10.952;2024-02-16T08:48:56;98633.06;;;14.05;100.00
18988;BME280;5494;51.796;10.952;2024-02-16T08:51:24;98640.69;;;14.08;100.00
18988;BME280;5494;51.796;10.952;2024-02-16T08:53:53;98638.25;;;14.18;100.00
18988;BME280;5494;51.796;10.952;2024-02-16T08:56:21;98627.59;;;14.21;100.00
18988;BME280;5494;51.796;10.952;2024-02-16T08:58:50;98635.94;;;14.26;100.00
18988;BME280;5494;51.796;10.952;2024-02-16T09:01:18;98633.09;;;14.29;100.00
18988;BME280;5494;51.796;10.952;2024-02-16T09:03:46;98636.41;;;14.07;100.00
18988;BME280;5494;51.796;10.952;2024-02-16T09:06:15;98630.06;;;13.86;100.00
18988;BME280;5494;51.796;10.952;2024-02-16T09:08:43;98635.56;;;14.07;100.00
18988;BME280;5494;51.796;10.952;2024-02-16T09:11:11;98630.69;;;14.26;100.00
18988;BME280;5494;51.796;10.952;2024-02-16T09:13:41;98629.81;;;14.51;100.00
18988;BME280;5494;51.796;10.952;2024-02-16T09:16:10;98632.41;;;14.98;96.11
18988;BME280;5494;51.796;10.952;2024-02-16T09:18:39;98633.22;;;15.34;92.92
18988;BME280;5494;51.796;10.952;2024-02-16T09:21:07;98641.81;;;15.47;90.26
18988;BME280;5494;51.796;10.952;2024-02-16T09:23:36;98652.25;;;15.25;93.21
18988;BME280;5494;51.796;10.952;2024-02-16T09:26:05;98654.88;;;15.36;91.33
18988;BME280;5494;51.796;10.952;2024-02-16T09:28:33;98651.56;;;15.45;91.63
18988;BME280;5494;51.796;10.952;2024-02-16T09:31:01;98654.16;;;15.80;88.06
18988;BME280;5494;51.796;10.952;2024-02-16T09:33:31;98661.19;;;16.02;84.69
18988;BME280;5494;51.796;10.952;2024-02-16T09:35:59;98672.16;;;16.07;86.59
18988;BME280;5494;51.796;10.952;2024-02-16T09:38:27;98662.34;;;15.53;88.58
18988;BME280;5494;51.796;10.952;2024-02-16T09:40:56;98666.06;;;15.62;88.79
18988;BME280;5494;51.796;10.952;2024-02-16T09:43:26;98656.41;;;15.62;89.42
18988;BME280;5494;51.796;10.952;2024-02-16T09:45:55;98666.19;;;16.05;87.52
18988;BME280;5494;51.796;10.952;2024-02-16T09:48:26;98641.47;;;16.52;82.46
18988;BME280;5494;51.796;10.952;2024-02-16T09:50:57;98643.41;;;16.82;78.83
18988;BME280;5494;51.796;10.952;2024-02-16T09:53:27;98646.25;;;16.90;78.58
18988;BME280;5494;51.796;10.952;2024-02-16T09:55:56;98637.00;;;17.27;79.38
18988;BME280;5494;51.796;10.952;2024-02-16T09:58:24;98632.81;;;17.46;75.44
18988;BME280;5494;51.796;10.952;2024-02-16T10:00:53;98639.91;;;17.96;74.54
18988;BME280;5494;51.796;10.952;2024-02-16T10:03:28;98633.03;;;18.64;68.34
18988;BME280;5494;51.796;10.952;2024-02-16T10:06:10;98639.72;;;19.07;65.26
18988;BME280;5494;51.796;10.952;2024-02-16T10:08:47;98643.88;;;19.00;66.28
18988;BME280;5494;51.796;10.952;2024-02-16T10:11:17;98644.84;;;18.79;67.49
18988;BME280;5494;51.796;10.952;2024-02-16T10:13:57;98654.94;;;19.32;63.93
18988;BME280;5494;51.796;10.952;2024-02-16T10:16:26;98641.97;;;19.77;62.87
18988;BME280;5494;51.796;10.952;2024-02-16T10:18:57;98652.16;;;19.99;59.82
18988;BME280;5494;51.796;10.952;2024-02-16T10:21:33;98649.53;;;20.27;60.09
18988;BME280;5494;51.796;10.952;2024-02-16T10:24:05;98642.28;;;19.64;59.31
18988;BME280;5494;51.796;10.952;2024-02-16T10:26:35;98636.22;;;18.77;64.22
18988;BME280;5494;51.796;10.952;2024-02-16T10:29:07;98626.53;;;18.78;65.25
18988;BME280;5494;51.796;10.952;2024-02-16T10:31:37;98623.56;;;18.52;65.69
18988;BME280;5494;51.796;10.952;2024-02-16T10:34:06;98633.13;;;18.53;66.21
18988;BME280;5494;51.796;10.952;2024-02-16T10:36:39;98616.34;;;18.44;65.01
18988;BME280;5494;51.796;10.952;2024-02-16T10:39:09;98623.38;;;18.34;64.92
18988;BME280;5494;51.796;10.952;2024-02-16T10:41:41;98618.03;;;17.96;66.81
18988;BME280;5494;51.796;10.952;2024-02-16T10:44:10;98635.13;;;17.81;68.72
18988;BME280;5494;51.796;10.952;2024-02-16T10:46:40;98630.75;;;17.91;71.75
18988;BME280;5494;51.796;10.952;2024-02-16T10:49:08;98626.78;;;17.55;71.74
18988;BME280;5494;51.796;10.952;2024-02-16T10:51:43;98632.50;;;17.60;70.19
18988;BME280;5494;51.796;10.952;2024-02-16T10:54:17;98635.50;;;17.55;69.89
18988;BME280;5494;51.796;10.952;2024-02-16T10:56:46;98639.53;;;17.59;69.97
18988;BME280;5494;51.796;10.952;2024-02-16T10:59:16;98639.31;;;17.62;70.27
18988;BME280;5494;51.796;10.952;2024-02-16T11:01:45;98642.78;;;17.42;70.84
18988;BME280;5494;51.796;10.952;2024-02-16T11:04:16;98634.41;;;17.37;70.90
18988;BME280;5494;51.796;10.952;2024-02-16T11:06:47;98632.72;;;17.26;72.33
18988;BME280;5494;51.796;10.952;2024-02-16T11:09:29;98631.28;;;17.22;72.93
18988;BME280;5494;51.796;10.952;2024-02-16T11:12:00;98641.03;;;17.11;72.71
18988;BME280;5494;51.796;10.952;2024-02-16T11:14:35;98621.78;;;17.10;73.05
18988;BME280;5494;51.796;10.952;2024-02-16T11:17:08;98610.53;;;16.55;76.07
18988;BME280;5494;51.796;10.952;2024-02-16T11:19:40;98617.13;;;16.50;78.03
18988;BME280;5494;51.796;10.952;2024-02-16T11:22:10;98614.78;;;16.36;78.54
18988;BME280;5494;51.796;10.952;2024-02-16T11:24:45;98612.41;;;16.22;80.03
18988;BME280;5494;51.796;10.952;2024-02-16T11:27:13;98621.84;;;16.24;80.65
18988;BME280;5494;51.796;10.952;2024-02-16T11:29:43;98626.75;;;16.18;80.48
18988;BME280;5494;51.796;10.952;2024-02-16T11:32:11;98619.34;;;16.00;81.67
18988;BME280;5494;51.796;10.952;2024-02-16T11:34:39;98614.97;;;15.90;84.52
18988;BME280;5494;51.796;10.952;2024-02-16T11:37:12;98615.53;;;16.15;83.53
18988;BME280;5494;51.796;10.952;2024-02-16T11:39:41;98625.44;;;16.01;84.03
18988;BME280;5494;51.796;10.952;2024-02-16T11:42:13;98632.59;;;16.10;83.56
18988;BME280;5494;51.796;10.952;2024-02-16T11:44:51;98619.59;;;15.97;84.77
18988;BME280;5494;51.796;10.952;2024-02-16T11:47:23;98622.06;;;16.21;84.20
18988;BME280;5494;51.796;10.952;2024-02-16T11:50:03;98619.47;;;15.99;84.22
18988;BME280;5494;51.796;10.952;2024-02-16T11:52:33;98621.41;;;15.97;85.69
18988;BME280;5494;51.796;10.952;2024-02-16T11:55:08;98620.16;;;16.23;83.60
18988;BME280;5494;51.796;10.952;2024-02-16T11:57:38;98627.94;;;16.25;84.42
18988;BME280;5494;51.796;10.952;2024-02-16T12:00:08;98643.03;;;16.43;83.74
18988;BME280;5494;51.796;10.952;2024-02-16T12:02:42;98643.38;;;16.39;83.82
18988;BME280;5494;51.796;10.952;2024-02-16T12:05:14;98644.34;;;16.38;82.41
18988;BME280;5494;51.796;10.952;2024-02-16T12:07:46;98649.50;;;16.17;83.66
18988;BME280;5494;51.796;10.952;2024-02-16T12:10:15;98653.19;;;15.92;86.09
18988;BME280;5494;51.796;10.952;2024-02-16T12:12:43;98652.22;;;16.04;86.23
18988;BME280;5494;51.796;10.952;2024-02-16T12:15:11;98645.94;;;15.85;86.77
18988;BME280;5494;51.796;10.952;2024-02-16T12:17:40;98655.25;;;15.89;87.71
18988;BME280;5494;51.796;10.952;2024-02-16T12:20:11;98646.91;;;15.95;88.42
18988;BME280;5494;51.796;10.952;2024-02-16T12:22:41;98639.13;;;16.04;89.43
18988;BME280;5494;51.796;10.952;2024-02-16T12:25:10;98642.84;;;16.02;89.41
18988;BME280;5494;51.796;10.952;2024-02-16T12:27:39;98634.94;;;16.13;87.93
18988;BME280;5494;51.796;10.952;2024-02-16T12:30:09;98637.00;;;16.09;87.09
18988;BME280;5494;51.796;10.952;2024-02-16T12:32:37;98640.56;;;16.08;86.57
18988;BME280;5494;51.796;10.952;2024-02-16T12:35:07;98642.00;;;16.01;87.95
18988;BME280;5494;51.796;10.952;2024-02-16T12:37:36;98627.09;;;16.02;88.25
18988;BME280;5494;51.796;10.952;2024-02-16T12:40:06;98636.97;;;15.98;88.36
18988;BME280;5494;51.796;10.952;2024-02-16T12:42:35;98634.97;;;15.91;89.18
18988;BME280;5494;51.796;10.952;2024-02-16T12:45:06;98632.72;;;15.86;90.40
18988;BME280;5494;51.796;10.952;2024-02-16T12:47:34;98621.63;;;15.71;91.19
18988;BME280;5494;51.796;10.952;2024-02-16T12:50:03;98627.22;;;15.78;90.86
18988;BME280;5494;51.796;10.952;2024-02-16T12:52:31;98618.78;;;15.74;90.75
18988;BME280;5494;51.796;10.952;2024-02-16T12:55:08;98620.66;;;15.72;91.25
18988;BME280;5494;51.796;10.952;2024-02-16T12:57:38;98615.91;;;15.66;91.62
18988;BME280;5494;51.796;10.952;2024-02-16T13:00:07;98619.84;;;15.72;91.56
18988;BME280;5494;51.796;10.952;2024-02-16T13:02:34;98617.91;;;15.63;92.29